Astoria, New York
Current Conditions -  °F | °C
As of 3:29 AM on Monday 24 Nov 2014 (Local Time) from KNYC Reporting Station
Moderate Rain Moderate Rain  
Wind Chill: 58°   Ceiling: 600
Heat Index: 58°   Visibility: 1.7mi
Dew Point: 56°   Wind: 6mph
Humidity: 93%   Direction: NA
Pressure: 29.81"   Gusts: NA
Location:  40.77°N, 73.93°W
Report Text: KNYC 240829Z AUTO VRB05KT 1 3/4SM RA BR OVC006 14/13 A2981 RMK AO2 P0014 T01440133 $
Loading
Personal Weather Stations






























Interactive Weather Map New forecast layout! Learn more

10-Day Weather Forecast

Advertisements
Track Severe Weather on mobile